Airfield :
LOGIN :

Register | Disclaimer

   EN    FR    IT 

 










Legend :    VFR   Marginal VFR   IFR   Intensive IFR   Very Intensive IFR
Visi :
Ceiling :
>= 8 km
>= 3000ft
5 to 8 km
1000 to 3000 ft
1500m to 5 km
500 to 1000 ft
800 to 1500m
200 to 500 ft
< 800m
< 200 ft
Symbols :   Thunderstorms  Fog  Heavy snow  Heavy precipitations  Wind > 20 kt
SIGMETs :     Misc.  Thunderstorms  Icing  Turbulence  Mountain Waves  Volcanic Ashes






- Airport Elevation : 37 ft


EHVL - Vlieland Heliport

CURRENT METAR :
  • 282204Z AUTO 21018KT 5000 -DZRA BKN007 BKN008 OVC010 14/14 Q1008 BLACKGRN

EXPIRED METARs :
  • 282202Z AUTO 21017KT 4400 BR BKN007 OVC008 14/14 Q1008 BLACKGRN
  • 282141Z AUTO 20016KT 7000 BR SCT006 BKN007 OVC008 14/14 Q1008 BLACKYLO
  • 282125Z AUTO 20015KT 3000 +DZ FEW004 BKN006 BKN007 14/13 Q1009 BLACKYLO
  • 282113Z AUTO 20016KT 3000 +DZRA SCT006 BKN008 BKN009 14/13 Q1009 BLACKYLO
  • 282059Z AUTO 20016KT 9000 BR FEW006 SCT008 BKN010 14/13 Q1009 BLACKGRN
  • 282027Z AUTO 20018KT 3700 DZ FEW004 SCT005 BKN014 FEW015CB 14/13 Q1009 BLACKYLO
  • 282025Z AUTO 19020KT 6000 -DZ FEW005 BKN014 FEW015CB OVC017 14/13 Q1009 REDZ BLACKGRN
  • 281955Z AUTO 18017KT 140V200 7000 SHRA FEW005 SCT007 BKN008 FEW015CB 15/14 Q1010 REDZ BLACKGRN
  • 281935Z AUTO 17018KT 9999 -RA FEW007 SCT008 BKN013 FEW015CB 15/14 Q1010 BLACKGRN
  • 281925Z AUTO 18018KT 9000 RA FEW007 SCT008 BKN010 FEW015CB 14/13 Q1010 BLACKGRN
  • 281912Z AUTO 17017KT 9999 RA FEW007 SCT008 BKN012 FEW015CB 14/13 Q1010 BLACKGRN
  • 281859Z AUTO 17016KT 9999 -SHRA FEW009 SCT010 BKN013 FEW015CB 15/13 Q1010 BLACKGRN
  • 281840Z AUTO 17014KT 9999 DZ FEW010 BKN012 SCT015CB OVC016 15/13 Q1010 BLACKGRN
  • 281825Z AUTO 18015KT 9999 -RA FEW010 SCT012 BKN015CB 15/13 Q1011 RERA REDZ BLACKGRN
  • 281814Z AUTO 18016KT 9999 -RA SCT011 BKN014 FEW015CB BKN017 15/13 Q1011 BLACKGRN
  • 281803Z AUTO 19017KT 9999 -DZ BKN013 BKN018 BKN024 15/13 Q1011 BLACKGRN
  • 281756Z AUTO 19016KT 9999 -DZ SCT013 BKN015 BKN020 15/13 Q1011 BLACKGRN
  • 281730Z AUTO 19013KT 9999 DZ SCT011 BKN014 BKN017 15/13 Q1011 BLACKGRN
  • 281727Z AUTO 19013KT 9999 -DZ FEW011 SCT016 OVC076 15/13 Q1012 BLACKWHT

Expired Forecast.



MET'MAP, your aeronautical weather chart ! - Copyright ORBIFLY December 2007 - Disclaimer

ORBIFLY MET'MAP TEAM :

Programming & Development : Alexandra Zaïnal
Original concept : Baudouin d'Aumeries
Technical & hardware support : Manuel Goepfert
Assistance : Marc-Olivier Méhu




SOURCES & CREDITS :

   NOAA